sensor_id;sensor_type;location;lat;lon;timestamp;temperature;humidity
2012;DHT22;1009;51.436;6.972;2022-10-16T00:01:35;14.70;99.90
2012;DHT22;1009;51.436;6.972;2022-10-16T00:04:01;14.80;99.90
2012;DHT22;1009;51.436;6.972;2022-10-16T00:06:30;14.70;99.90
2012;DHT22;1009;51.436;6.972;2022-10-16T00:08:58;14.80;99.90
2012;DHT22;1009;51.436;6.972;2022-10-16T00:11:27;14.70;99.90
2012;DHT22;1009;51.436;6.972;2022-10-16T00:13:56;14.80;99.90
2012;DHT22;1009;51.436;6.972;2022-10-16T00:16:24;14.70;99.90
2012;DHT22;1009;51.436;6.972;2022-10-16T00:18:50;14.80;99.90
2012;DHT22;1009;51.436;6.972;2022-10-16T00:21:20;14.80;99.90
2012;DHT22;1009;51.436;6.972;2022-10-16T00:23:50;14.60;99.90
2012;DHT22;1009;51.436;6.972;2022-10-16T00:26:19;14.60;99.90
2012;DHT22;1009;51.436;6.972;2022-10-16T00:28:46;14.60;99.90
2012;DHT22;1009;51.436;6.972;2022-10-16T00:31:13;14.60;99.90
2012;DHT22;1009;51.436;6.972;2022-10-16T00:33:40;14.60;99.90
2012;DHT22;1009;51.436;6.972;2022-10-16T00:36:10;14.60;99.90
2012;DHT22;1009;51.436;6.972;2022-10-16T00:38:37;14.60;99.90
2012;DHT22;1009;51.436;6.972;2022-10-16T00:41:05;14.60;99.90
2012;DHT22;1009;51.436;6.972;2022-10-16T00:43:39;14.50;99.90
2012;DHT22;1009;51.436;6.972;2022-10-16T00:46:13;14.70;99.90
2012;DHT22;1009;51.436;6.972;2022-10-16T00:48:45;14.50;99.90
2012;DHT22;1009;51.436;6.972;2022-10-16T00:51:14;14.60;99.90
2012;DHT22;1009;51.436;6.972;2022-10-16T00:53:41;14.60;99.90
2012;DHT22;1009;51.436;6.972;2022-10-16T00:56:07;14.60;99.90
2012;DHT22;1009;51.436;6.972;2022-10-16T00:58:34;14.60;99.90
2012;DHT22;1009;51.436;6.972;2022-10-16T01:01:02;14.70;99.90
2012;DHT22;1009;51.436;6.972;2022-10-16T01:03:31;14.70;99.90
2012;DHT22;1009;51.436;6.972;2022-10-16T01:06:08;14.60;99.90
2012;DHT22;1009;51.436;6.972;2022-10-16T01:08:46;14.70;99.90
2012;DHT22;1009;51.436;6.972;2022-10-16T01:11:23;14.60;99.90
2012;DHT22;1009;51.436;6.972;2022-10-16T01:13:54;14.60;99.90
2012;DHT22;1009;51.436;6.972;2022-10-16T01:16:29;14.50;99.90
2012;DHT22;1009;51.436;6.972;2022-10-16T01:19:04;14.60;99.90
2012;DHT22;1009;51.436;6.972;2022-10-16T01:21:36;14.60;99.90
2012;DHT22;1009;51.436;6.972;2022-10-16T01:24:12;14.50;99.90
2012;DHT22;1009;51.436;6.972;2022-10-16T01:26:58;14.60;99.90
2012;DHT22;1009;51.436;6.972;2022-10-16T01:29:28;14.60;99.90
2012;DHT22;1009;51.436;6.972;2022-10-16T01:31:58;14.50;99.90
2012;DHT22;1009;51.436;6.972;2022-10-16T01:34:33;14.60;99.90
2012;DHT22;1009;51.436;6.972;2022-10-16T01:37:05;14.50;99.90
2012;DHT22;1009;51.436;6.972;2022-10-16T01:39:35;14.50;99.90
2012;DHT22;1009;51.436;6.972;2022-10-16T01:42:09;14.40;99.90
2012;DHT22;1009;51.436;6.972;2022-10-16T01:44:38;14.50;99.90
2012;DHT22;1009;51.436;6.972;2022-10-16T01:47:07;14.50;99.90
2012;DHT22;1009;51.436;6.972;2022-10-16T01:49:38;14.40;99.90
2012;DHT22;1009;51.436;6.972;2022-10-16T01:52:07;14.50;99.90
2012;DHT22;1009;51.436;6.972;2022-10-16T01:54:37;14.40;99.90
2012;DHT22;1009;51.436;6.972;2022-10-16T01:57:06;14.50;99.90
2012;DHT22;1009;51.436;6.972;2022-10-16T01:59:37;14.50;99.90
2012;DHT22;1009;51.436;6.972;2022-10-16T02:02:07;14.50;99.90
2012;DHT22;1009;51.436;6.972;2022-10-16T02:04:38;14.50;99.90
2012;DHT22;1009;51.436;6.972;2022-10-16T02:07:06;14.60;99.90
2012;DHT22;1009;51.436;6.972;2022-10-16T02:09:33;14.60;99.90
2012;DHT22;1009;51.436;6.972;2022-10-16T02:12:06;14.50;99.90
2012;DHT22;1009;51.436;6.972;2022-10-16T02:14:34;14.60;99.90
2012;DHT22;1009;51.436;6.972;2022-10-16T02:17:10;14.60;99.90
2012;DHT22;1009;51.436;6.972;2022-10-16T02:19:37;14.60;99.90
2012;DHT22;1009;51.436;6.972;2022-10-16T02:22:05;14.60;99.90
2012;DHT22;1009;51.436;6.972;2022-10-16T02:24:36;14.60;99.90
2012;DHT22;1009;51.436;6.972;2022-10-16T02:27:10;14.50;99.90
2012;DHT22;1009;51.436;6.972;2022-10-16T02:29:40;14.50;99.90
2012;DHT22;1009;51.436;6.972;2022-10-16T02:32:10;14.50;99.90
2012;DHT22;1009;51.436;6.972;2022-10-16T02:34:39;14.50;99.90
2012;DHT22;1009;51.436;6.972;2022-10-16T02:37:07;14.50;99.90
2012;DHT22;1009;51.436;6.972;2022-10-16T02:39:35;14.50;99.90
2012;DHT22;1009;51.436;6.972;2022-10-16T02:42:03;14.50;99.90
2012;DHT22;1009;51.436;6.972;2022-10-16T02:44:31;14.50;99.90
2012;DHT22;1009;51.436;6.972;2022-10-16T02:46:58;14.50;99.90
2012;DHT22;1009;51.436;6.972;2022-10-16T02:49:25;14.40;99.90
2012;DHT22;1009;51.436;6.972;2022-10-16T02:51:51;14.50;99.90
2012;DHT22;1009;51.436;6.972;2022-10-16T02:54:18;14.50;99.90
2012;DHT22;1009;51.436;6.972;2022-10-16T02:56:45;14.50;99.90
2012;DHT22;1009;51.436;6.972;2022-10-16T02:59:12;14.60;99.90
2012;DHT22;1009;51.436;6.972;2022-10-16T03:01:40;14.60;99.90
2012;DHT22;1009;51.436;6.972;2022-10-16T03:04:06;14.60;99.90
2012;DHT22;1009;51.436;6.972;2022-10-16T03:06:33;14.60;99.90
2012;DHT22;1009;51.436;6.972;2022-10-16T03:09:00;14.60;99.90
2012;DHT22;1009;51.436;6.972;2022-10-16T03:11:27;14.60;99.90
2012;DHT22;1009;51.436;6.972;2022-10-16T03:13:54;14.70;99.90
2012;DHT22;1009;51.436;6.972;2022-10-16T03:16:21;14.60;99.90
2012;DHT22;1009;51.436;6.972;2022-10-16T03:18:49;14.60;99.90
2012;DHT22;1009;51.436;6.972;2022-10-16T03:21:16;14.70;99.90
2012;DHT22;1009;51.436;6.972;2022-10-16T03:23:43;14.60;99.90
2012;DHT22;1009;51.436;6.972;2022-10-16T03:26:09;14.60;99.90
2012;DHT22;1009;51.436;6.972;2022-10-16T03:28:36;14.70;99.90
2012;DHT22;1009;51.436;6.972;2022-10-16T03:31:03;14.70;99.90
2012;DHT22;1009;51.436;6.972;2022-10-16T03:33:29;14.70;99.90
2012;DHT22;1009;51.436;6.972;2022-10-16T03:35:58;14.70;99.90
2012;DHT22;1009;51.436;6.972;2022-10-16T03:38:25;14.70;99.90
2012;DHT22;1009;51.436;6.972;2022-10-16T03:40:52;14.60;99.90
2012;DHT22;1009;51.436;6.972;2022-10-16T03:43:19;14.60;99.90
2012;DHT22;1009;51.436;6.972;2022-10-16T03:45:45;14.60;99.90
2012;DHT22;1009;51.436;6.972;2022-10-16T03:48:12;14.60;99.90
2012;DHT22;1009;51.436;6.972;2022-10-16T03:50:39;14.60;99.90
2012;DHT22;1009;51.436;6.972;2022-10-16T03:53:07;14.60;99.90
2012;DHT22;1009;51.436;6.972;2022-10-16T03:55:35;14.60;99.90
2012;DHT22;1009;51.436;6.972;2022-10-16T03:58:02;14.60;99.90
2012;DHT22;1009;51.436;6.972;2022-10-16T04:00:28;14.50;99.90
2012;DHT22;1009;51.436;6.972;2022-10-16T04:02:55;14.50;99.90
2012;DHT22;1009;51.436;6.972;2022-10-16T04:05:22;14.40;99.90
2012;DHT22;1009;51.436;6.972;2022-10-16T04:07:48;14.40;99.90
2012;DHT22;1009;51.436;6.972;2022-10-16T04:10:17;14.40;99.90
2012;DHT22;1009;51.436;6.972;2022-10-16T04:12:44;14.50;99.90
2012;DHT22;1009;51.436;6.972;2022-10-16T04:15:11;14.30;99.90
2012;DHT22;1009;51.436;6.972;2022-10-16T04:17:38;14.40;99.90
2012;DHT22;1009;51.436;6.972;2022-10-16T04:20:05;14.40;99.90
2012;DHT22;1009;51.436;6.972;2022-10-16T04:22:32;14.40;99.90
2012;DHT22;1009;51.436;6.972;2022-10-16T04:24:59;14.40;99.90
2012;DHT22;1009;51.436;6.972;2022-10-16T04:27:27;14.30;99.90
2012;DHT22;1009;51.436;6.972;2022-10-16T04:29:56;14.30;99.90
2012;DHT22;1009;51.436;6.972;2022-10-16T04:32:23;14.30;99.90
2012;DHT22;1009;51.436;6.972;2022-10-16T04:34:50;14.30;99.90
2012;DHT22;1009;51.436;6.972;2022-10-16T04:37:16;14.30;99.90
2012;DHT22;1009;51.436;6.972;2022-10-16T04:39:43;14.20;99.90
2012;DHT22;1009;51.436;6.972;2022-10-16T04:42:10;14.30;99.90
2012;DHT22;1009;51.436;6.972;2022-10-16T04:44:38;14.30;99.90
2012;DHT22;1009;51.436;6.972;2022-10-16T04:47:05;14.20;99.90
2012;DHT22;1009;51.436;6.972;2022-10-16T04:49:32;14.10;99.90
2012;DHT22;1009;51.436;6.972;2022-10-16T04:51:58;14.20;99.90
2012;DHT22;1009;51.436;6.972;2022-10-16T04:54:25;14.10;99.90
2012;DHT22;1009;51.436;6.972;2022-10-16T04:56:52;14.10;99.90
2012;DHT22;1009;51.436;6.972;2022-10-16T04:59:19;14.10;99.90
2012;DHT22;1009;51.436;6.972;2022-10-16T05:01:48;14.10;99.90
2012;DHT22;1009;51.436;6.972;2022-10-16T05:04:15;14.10;99.90
2012;DHT22;1009;51.436;6.972;2022-10-16T05:06:42;14.20;99.90
2012;DHT22;1009;51.436;6.972;2022-10-16T05:09:09;14.20;99.90
2012;DHT22;1009;51.436;6.972;2022-10-16T05:11:36;14.10;99.90
2012;DHT22;1009;51.436;6.972;2022-10-16T05:14:02;14.10;99.90
2012;DHT22;1009;51.436;6.972;2022-10-16T05:16:29;14.10;99.90
2012;DHT22;1009;51.436;6.972;2022-10-16T05:18:58;14.20;99.90
2012;DHT22;1009;51.436;6.972;2022-10-16T05:21:24;14.30;99.90
2012;DHT22;1009;51.436;6.972;2022-10-16T05:23:53;14.20;99.90
2012;DHT22;1009;51.436;6.972;2022-10-16T05:26:19;14.20;99.90
2012;DHT22;1009;51.436;6.972;2022-10-16T05:28:46;14.20;99.90
2012;DHT22;1009;51.436;6.972;2022-10-16T05:31:13;14.10;99.90
2012;DHT22;1009;51.436;6.972;2022-10-16T05:33:40;14.10;99.90
2012;DHT22;1009;51.436;6.972;2022-10-16T05:36:09;14.10;99.90
2012;DHT22;1009;51.436;6.972;2022-10-16T05:38:37;14.10;99.90
2012;DHT22;1009;51.436;6.972;2022-10-16T05:41:04;14.10;99.90
2012;DHT22;1009;51.436;6.972;2022-10-16T05:43:31;14.00;99.90
2012;DHT22;1009;51.436;6.972;2022-10-16T05:46:00;14.10;99.90
2012;DHT22;1009;51.436;6.972;2022-10-16T05:48:27;14.00;99.90
2012;DHT22;1009;51.436;6.972;2022-10-16T05:50:58;14.10;99.90
2012;DHT22;1009;51.436;6.972;2022-10-16T05:53:27;13.90;99.90
2012;DHT22;1009;51.436;6.972;2022-10-16T05:55:54;14.00;99.90
2012;DHT22;1009;51.436;6.972;2022-10-16T05:58:21;14.00;99.90
2012;DHT22;1009;51.436;6.972;2022-10-16T06:00:55;14.10;99.90
2012;DHT22;1009;51.436;6.972;2022-10-16T06:03:21;14.00;99.90
2012;DHT22;1009;51.436;6.972;2022-10-16T06:05:48;14.10;99.90
2012;DHT22;1009;51.436;6.972;2022-10-16T06:08:15;14.20;99.90
2012;DHT22;1009;51.436;6.972;2022-10-16T06:10:44;14.10;99.90
2012;DHT22;1009;51.436;6.972;2022-10-16T06:13:11;14.00;99.90
2012;DHT22;1009;51.436;6.972;2022-10-16T06:15:38;14.10;99.90
2012;DHT22;1009;51.436;6.972;2022-10-16T06:18:07;14.10;99.90
2012;DHT22;1009;51.436;6.972;2022-10-16T06:20:34;14.10;99.90
2012;DHT22;1009;51.436;6.972;2022-10-16T06:23:01;14.10;99.90
2012;DHT22;1009;51.436;6.972;2022-10-16T06:25:29;14.10;99.90
2012;DHT22;1009;51.436;6.972;2022-10-16T06:27:57;14.10;99.90
2012;DHT22;1009;51.436;6.972;2022-10-16T06:30:24;14.00;99.90
2012;DHT22;1009;51.436;6.972;2022-10-16T06:32:51;14.10;99.90
2012;DHT22;1009;51.436;6.972;2022-10-16T06:35:17;14.00;99.90
2012;DHT22;1009;51.436;6.972;2022-10-16T06:37:44;14.10;99.90
2012;DHT22;1009;51.436;6.972;2022-10-16T06:40:11;14.20;99.90
2012;DHT22;1009;51.436;6.972;2022-10-16T06:42:40;14.10;99.90
2012;DHT22;1009;51.436;6.972;2022-10-16T06:45:09;14.20;99.90
2012;DHT22;1009;51.436;6.972;2022-10-16T06:47:36;14.20;99.90
2012;DHT22;1009;51.436;6.972;2022-10-16T06:50:03;14.30;99.90
2012;DHT22;1009;51.436;6.972;2022-10-16T06:52:32;14.30;99.90
2012;DHT22;1009;51.436;6.972;2022-10-16T06:54:59;14.30;99.90
2012;DHT22;1009;51.436;6.972;2022-10-16T06:57:26;14.30;99.90
2012;DHT22;1009;51.436;6.972;2022-10-16T06:59:52;14.30;99.90
2012;DHT22;1009;51.436;6.972;2022-10-16T07:02:21;14.30;99.90
2012;DHT22;1009;51.436;6.972;2022-10-16T07:04:47;14.30;99.90
2012;DHT22;1009;51.436;6.972;2022-10-16T07:07:14;14.30;99.90
2012;DHT22;1009;51.436;6.972;2022-10-16T07:09:41;14.30;99.90
2012;DHT22;1009;51.436;6.972;2022-10-16T07:12:07;14.30;99.90
2012;DHT22;1009;51.436;6.972;2022-10-16T07:14:34;14.40;99.90
2012;DHT22;1009;51.436;6.972;2022-10-16T07:17:01;14.50;99.90
2012;DHT22;1009;51.436;6.972;2022-10-16T07:19:29;14.40;99.90
2012;DHT22;1009;51.436;6.972;2022-10-16T07:21:56;14.50;99.90
2012;DHT22;1009;51.436;6.972;2022-10-16T07:24:23;14.40;99.90
2012;DHT22;1009;51.436;6.972;2022-10-16T07:26:50;14.50;99.90
2012;DHT22;1009;51.436;6.972;2022-10-16T07:29:18;14.40;99.90
2012;DHT22;1009;51.436;6.972;2022-10-16T07:31:46;14.40;99.90
2012;DHT22;1009;51.436;6.972;2022-10-16T07:34:15;14.50;99.90
2012;DHT22;1009;51.436;6.972;2022-10-16T07:36:43;14.40;99.90
2012;DHT22;1009;51.436;6.972;2022-10-16T07:39:11;14.50;99.90
2012;DHT22;1009;51.436;6.972;2022-10-16T07:41:38;14.70;99.90
2012;DHT22;1009;51.436;6.972;2022-10-16T07:44:05;14.80;99.90
2012;DHT22;1009;51.436;6.972;2022-10-16T07:46:32;14.90;99.90
2012;DHT22;1009;51.436;6.972;2022-10-16T07:49:01;14.90;99.90
2012;DHT22;1009;51.436;6.972;2022-10-16T07:51:28;15.10;99.90
2012;DHT22;1009;51.436;6.972;2022-10-16T07:53:56;15.20;99.90
2012;DHT22;1009;51.436;6.972;2022-10-16T07:56:23;15.30;99.90
2012;DHT22;1009;51.436;6.972;2022-10-16T07:58:50;15.50;99.90
2012;DHT22;1009;51.436;6.972;2022-10-16T08:01:18;15.50;99.90
2012;DHT22;1009;51.436;6.972;2022-10-16T08:03:45;15.60;99.90
2012;DHT22;1009;51.436;6.972;2022-10-16T08:06:13;15.70;99.90
2012;DHT22;1009;51.436;6.972;2022-10-16T08:08:40;15.80;99.90
2012;DHT22;1009;51.436;6.972;2022-10-16T08:11:08;15.80;99.90
2012;DHT22;1009;51.436;6.972;2022-10-16T08:13:35;15.90;99.90
2012;DHT22;1009;51.436;6.972;2022-10-16T08:16:02;16.00;99.90
2012;DHT22;1009;51.436;6.972;2022-10-16T08:18:33;16.00;99.90
2012;DHT22;1009;51.436;6.972;2022-10-16T08:31:05;16.20;99.90
2012;DHT22;1009;51.436;6.972;2022-10-16T08:33:32;16.50;99.90
2012;DHT22;1009;51.436;6.972;2022-10-16T08:38:27;16.50;99.90
2012;DHT22;1009;51.436;6.972;2022-10-16T08:51:19;16.90;99.90
2012;DHT22;1009;51.436;6.972;2022-10-16T08:53:51;17.40;99.90
2012;DHT22;1009;51.436;6.972;2022-10-16T08:56:19;17.50;99.90
2012;DHT22;1009;51.436;6.972;2022-10-16T08:58:46;17.60;99.90
2012;DHT22;1009;51.436;6.972;2022-10-16T09:01:17;17.50;99.90
2012;DHT22;1009;51.436;6.972;2022-10-16T09:06:56;17.60;99.90
2012;DHT22;1009;51.436;6.972;2022-10-16T09:09:45;17.60;99.90
2012;DHT22;1009;51.436;6.972;2022-10-16T09:12:19;17.80;99.90
2012;DHT22;1009;51.436;6.972;2022-10-16T09:14:59;17.70;99.90
2012;DHT22;1009;51.436;6.972;2022-10-16T09:17:38;17.80;99.90
2012;DHT22;1009;51.436;6.972;2022-10-16T09:22:41;17.50;99.90
2012;DHT22;1009;51.436;6.972;2022-10-16T09:25:12;17.80;99.90
2012;DHT22;1009;51.436;6.972;2022-10-16T09:27:39;17.70;99.90
2012;DHT22;1009;51.436;6.972;2022-10-16T09:30:12;17.80;99.90
2012;DHT22;1009;51.436;6.972;2022-10-16T09:32:40;18.00;99.90
2012;DHT22;1009;51.436;6.972;2022-10-16T09:35:13;18.30;99.90
2012;DHT22;1009;51.436;6.972;2022-10-16T09:37:41;18.20;99.90
2012;DHT22;1009;51.436;6.972;2022-10-16T09:40:13;18.20;99.90
2012;DHT22;1009;51.436;6.972;2022-10-16T09:42:40;18.20;99.90
2012;DHT22;1009;51.436;6.972;2022-10-16T09:45:20;18.20;99.90
2012;DHT22;1009;51.436;6.972;2022-10-16T09:47:49;18.10;99.90
2012;DHT22;1009;51.436;6.972;2022-10-16T09:50:22;18.00;99.90
2012;DHT22;1009;51.436;6.972;2022-10-16T09:53:02;18.10;99.90
2012;DHT22;1009;51.436;6.972;2022-10-16T09:55:29;18.20;99.90
2012;DHT22;1009;51.436;6.972;2022-10-16T10:05:22;18.50;99.90
2012;DHT22;1009;51.436;6.972;2022-10-16T10:07:55;18.60;99.90
2012;DHT22;1009;51.436;6.972;2022-10-16T10:12:50;18.50;99.90
2012;DHT22;1009;51.436;6.972;2022-10-16T10:17:48;18.90;99.90
2012;DHT22;1009;51.436;6.972;2022-10-16T10:20:23;19.10;99.90
2012;DHT22;1009;51.436;6.972;2022-10-16T10:22:50;19.20;99.90
2012;DHT22;1009;51.436;6.972;2022-10-16T10:25:40;19.30;99.90
2012;DHT22;1009;51.436;6.972;2022-10-16T10:28:27;19.60;99.90
2012;DHT22;1009;51.436;6.972;2022-10-16T10:33:31;19.40;99.90
2012;DHT22;1009;51.436;6.972;2022-10-16T10:36:11;19.60;99.90
2012;DHT22;1009;51.436;6.972;2022-10-16T10:38:47;19.80;99.90
2012;DHT22;1009;51.436;6.972;2022-10-16T10:44:30;20.00;99.90
2012;DHT22;1009;51.436;6.972;2022-10-16T10:49:46;20.10;99.90
2012;DHT22;1009;51.436;6.972;2022-10-16T10:55:02;20.00;99.90
2012;DHT22;1009;51.436;6.972;2022-10-16T10:57:39;20.10;99.90
2012;DHT22;1009;51.436;6.972;2022-10-16T11:00:21;20.00;99.90
2012;DHT22;1009;51.436;6.972;2022-10-16T11:02:55;20.00;99.90
2012;DHT22;1009;51.436;6.972;2022-10-16T11:05:31;20.10;99.90
2012;DHT22;1009;51.436;6.972;2022-10-16T11:08:04;20.20;99.90
2012;DHT22;1009;51.436;6.972;2022-10-16T11:10:41;20.00;99.90
2012;DHT22;1009;51.436;6.972;2022-10-16T11:13:19;20.20;99.90
2012;DHT22;1009;51.436;6.972;2022-10-16T11:15:48;20.30;99.90
2012;DHT22;1009;51.436;6.972;2022-10-16T11:18:20;20.30;99.90
2012;DHT22;1009;51.436;6.972;2022-10-16T11:20:51;20.30;99.90
2012;DHT22;1009;51.436;6.972;2022-10-16T11:23:25;20.50;99.90
2012;DHT22;1009;51.436;6.972;2022-10-16T11:25:56;20.50;99.90
2012;DHT22;1009;51.436;6.972;2022-10-16T11:28:27;20.30;99.90
2012;DHT22;1009;51.436;6.972;2022-10-16T11:31:00;20.10;99.90
2012;DHT22;1009;51.436;6.972;2022-10-16T11:33:32;20.00;99.90
2012;DHT22;1009;51.436;6.972;2022-10-16T11:36:06;20.10;99.90
2012;DHT22;1009;51.436;6.972;2022-10-16T11:38:41;20.30;99.90
2012;DHT22;1009;51.436;6.972;2022-10-16T11:41:15;20.10;99.90
2012;DHT22;1009;51.436;6.972;2022-10-16T11:43:52;20.00;99.90
2012;DHT22;1009;51.436;6.972;2022-10-16T11:46:21;20.20;99.90
2012;DHT22;1009;51.436;6.972;2022-10-16T11:48:54;20.50;99.90
2012;DHT22;1009;51.436;6.972;2022-10-16T11:51:31;20.80;99.90
2012;DHT22;1009;51.436;6.972;2022-10-16T11:54:07;21.00;99.90
2012;DHT22;1009;51.436;6.972;2022-10-16T11:56:38;20.80;99.90
2012;DHT22;1009;51.436;6.972;2022-10-16T11:59:11;20.60;99.90
2012;DHT22;1009;51.436;6.972;2022-10-16T12:01:46;20.20;99.90
2012;DHT22;1009;51.436;6.972;2022-10-16T12:04:19;20.30;99.90
2012;DHT22;1009;51.436;6.972;2022-10-16T12:06:52;20.40;99.90
2012;DHT22;1009;51.436;6.972;2022-10-16T12:09:26;20.50;99.90
2012;DHT22;1009;51.436;6.972;2022-10-16T12:11:54;20.80;99.90
2012;DHT22;1009;51.436;6.972;2022-10-16T12:14:37;21.10;99.90
2012;DHT22;1009;51.436;6.972;2022-10-16T12:17:27;21.30;99.90
2012;DHT22;1009;51.436;6.972;2022-10-16T12:19:58;21.30;99.90
2012;DHT22;1009;51.436;6.972;2022-10-16T12:22:28;21.40;99.90
2012;DHT22;1009;51.436;6.972;2022-10-16T12:24:57;21.20;99.90
2012;DHT22;1009;51.436;6.972;2022-10-16T12:27:28;21.00;99.90
2012;DHT22;1009;51.436;6.972;2022-10-16T12:29:56;20.60;99.90
2012;DHT22;1009;51.436;6.972;2022-10-16T12:32:28;20.70;99.90
2012;DHT22;1009;51.436;6.972;2022-10-16T12:34:56;20.50;99.90
2012;DHT22;1009;51.436;6.972;2022-10-16T12:37:24;20.50;99.90
2012;DHT22;1009;51.436;6.972;2022-10-16T12:39:53;20.50;99.90
2012;DHT22;1009;51.436;6.972;2022-10-16T12:42:30;20.30;99.90
2012;DHT22;1009;51.436;6.972;2022-10-16T12:44:59;20.40;99.90
2012;DHT22;1009;51.436;6.972;2022-10-16T12:47:36;20.50;99.90
2012;DHT22;1009;51.436;6.972;2022-10-16T12:50:27;20.60;99.90
2012;DHT22;1009;51.436;6.972;2022-10-16T12:52:54;20.50;99.90
2012;DHT22;1009;51.436;6.972;2022-10-16T12:55:21;20.20;99.90
2012;DHT22;1009;51.436;6.972;2022-10-16T13:00:53;20.10;99.90
2012;DHT22;1009;51.436;6.972;2022-10-16T13:03:31;20.20;99.90
2012;DHT22;1009;51.436;6.972;2022-10-16T13:06:10;20.60;99.90
2012;DHT22;1009;51.436;6.972;2022-10-16T13:09:00;21.10;99.90
2012;DHT22;1009;51.436;6.972;2022-10-16T13:11:39;21.40;99.90
2012;DHT22;1009;51.436;6.972;2022-10-16T13:14:41;21.60;99.90
2012;DHT22;1009;51.436;6.972;2022-10-16T13:17:16;21.40;99.90
2012;DHT22;1009;51.436;6.972;2022-10-16T13:19:52;21.20;99.90
2012;DHT22;1009;51.436;6.972;2022-10-16T13:22:28;21.40;99.90
2012;DHT22;1009;51.436;6.972;2022-10-16T13:25:05;21.80;99.90
2012;DHT22;1009;51.436;6.972;2022-10-16T13:27:41;21.90;99.90
2012;DHT22;1009;51.436;6.972;2022-10-16T13:30:16;21.60;99.90
2012;DHT22;1009;51.436;6.972;2022-10-16T13:32:45;21.20;99.90
2012;DHT22;1009;51.436;6.972;2022-10-16T13:35:21;20.90;99.90
2012;DHT22;1009;51.436;6.972;2022-10-16T13:37:48;20.70;99.90
2012;DHT22;1009;51.436;6.972;2022-10-16T13:40:20;20.60;99.90
2012;DHT22;1009;51.436;6.972;2022-10-16T13:42:48;20.30;99.90
2012;DHT22;1009;51.436;6.972;2022-10-16T13:45:20;20.10;99.90
2012;DHT22;1009;51.436;6.972;2022-10-16T13:47:47;20.10;99.90
2012;DHT22;1009;51.436;6.972;2022-10-16T13:50:16;20.10;99.90
2012;DHT22;1009;51.436;6.972;2022-10-16T13:52:44;20.10;99.90
2012;DHT22;1009;51.436;6.972;2022-10-16T13:55:12;20.10;99.90
2012;DHT22;1009;51.436;6.972;2022-10-16T13:57:39;20.00;99.90
2012;DHT22;1009;51.436;6.972;2022-10-16T14:00:20;19.90;99.90
2012;DHT22;1009;51.436;6.972;2022-10-16T14:02:51;20.00;99.90
2012;DHT22;1009;51.436;6.972;2022-10-16T14:05:20;20.00;99.90
2012;DHT22;1009;51.436;6.972;2022-10-16T14:07:49;20.00;99.90
2012;DHT22;1009;51.436;6.972;2022-10-16T14:10:23;20.00;99.90
2012;DHT22;1009;51.436;6.972;2022-10-16T14:12:59;20.00;99.90
2012;DHT22;1009;51.436;6.972;2022-10-16T14:15:27;20.00;99.90
2012;DHT22;1009;51.436;6.972;2022-10-16T14:17:55;20.00;99.90
2012;DHT22;1009;51.436;6.972;2022-10-16T14:20:25;20.10;99.90
2012;DHT22;1009;51.436;6.972;2022-10-16T14:23:01;20.00;99.90
2012;DHT22;1009;51.436;6.972;2022-10-16T14:25:30;19.90;99.90
2012;DHT22;1009;51.436;6.972;2022-10-16T14:27:59;19.80;99.90
2012;DHT22;1009;51.436;6.972;2022-10-16T14:30:29;19.80;99.90
2012;DHT22;1009;51.436;6.972;2022-10-16T14:32:57;19.80;99.90
2012;DHT22;1009;51.436;6.972;2022-10-16T14:35:27;19.70;99.90
2012;DHT22;1009;51.436;6.972;2022-10-16T14:37:56;19.70;99.90
2012;DHT22;1009;51.436;6.972;2022-10-16T14:40:25;19.70;99.90
2012;DHT22;1009;51.436;6.972;2022-10-16T14:42:53;19.70;99.90
2012;DHT22;1009;51.436;6.972;2022-10-16T14:45:22;19.60;99.90
2012;DHT22;1009;51.436;6.972;2022-10-16T14:47:54;19.60;99.90
2012;DHT22;1009;51.436;6.972;2022-10-16T14:50:21;19.50;99.90
2012;DHT22;1009;51.436;6.972;2022-10-16T14:52:48;19.50;99.90
2012;DHT22;1009;51.436;6.972;2022-10-16T14:55:15;19.50;99.90
2012;DHT22;1009;51.436;6.972;2022-10-16T14:57:46;19.50;99.90
2012;DHT22;1009;51.436;6.972;2022-10-16T15:00:27;19.60;99.90
2012;DHT22;1009;51.436;6.972;2022-10-16T15:02:55;19.60;99.90
2012;DHT22;1009;51.436;6.972;2022-10-16T15:05:23;19.40;99.90
2012;DHT22;1009;51.436;6.972;2022-10-16T15:07:52;19.40;99.90
2012;DHT22;1009;51.436;6.972;2022-10-16T15:10:20;19.40;99.90
2012;DHT22;1009;51.436;6.972;2022-10-16T15:17:56;19.20;99.90
2012;DHT22;1009;51.436;6.972;2022-10-16T15:20:24;19.40;99.90
2012;DHT22;1009;51.436;6.972;2022-10-16T15:32:50;19.00;99.90
2012;DHT22;1009;51.436;6.972;2022-10-16T15:35:19;19.20;99.90
2012;DHT22;1009;51.436;6.972;2022-10-16T15:37:46;19.20;99.90
2012;DHT22;1009;51.436;6.972;2022-10-16T15:40:13;19.10;99.90
2012;DHT22;1009;51.436;6.972;2022-10-16T15:42:39;19.10;99.90
2012;DHT22;1009;51.436;6.972;2022-10-16T15:45:07;19.10;99.90
2012;DHT22;1009;51.436;6.972;2022-10-16T15:47:35;19.00;99.90
2012;DHT22;1009;51.436;6.972;2022-10-16T15:50:01;19.00;99.90
2012;DHT22;1009;51.436;6.972;2022-10-16T15:52:30;18.90;99.90
2012;DHT22;1009;51.436;6.972;2022-10-16T15:54:57;19.00;99.90
2012;DHT22;1009;51.436;6.972;2022-10-16T15:57:24;19.00;99.90
2012;DHT22;1009;51.436;6.972;2022-10-16T15:59:51;18.90;99.90
2012;DHT22;1009;51.436;6.972;2022-10-16T16:02:17;19.00;99.90
2012;DHT22;1009;51.436;6.972;2022-10-16T16:04:44;18.90;99.90
2012;DHT22;1009;51.436;6.972;2022-10-16T16:07:11;18.90;99.90
2012;DHT22;1009;51.436;6.972;2022-10-16T16:09:41;18.80;99.90
2012;DHT22;1009;51.436;6.972;2022-10-16T16:12:09;18.70;99.90
2012;DHT22;1009;51.436;6.972;2022-10-16T16:14:36;18.70;99.90
2012;DHT22;1009;51.436;6.972;2022-10-16T16:17:03;18.70;99.90
2012;DHT22;1009;51.436;6.972;2022-10-16T16:19:29;18.60;99.90
2012;DHT22;1009;51.436;6.972;2022-10-16T16:21:57;18.50;99.90
2012;DHT22;1009;51.436;6.972;2022-10-16T16:24:24;18.60;99.90
2012;DHT22;1009;51.436;6.972;2022-10-16T16:26:52;18.50;99.90
2012;DHT22;1009;51.436;6.972;2022-10-16T16:29:18;18.30;99.90
2012;DHT22;1009;51.436;6.972;2022-10-16T16:31:45;18.20;99.90
2012;DHT22;1009;51.436;6.972;2022-10-16T16:34:12;18.30;99.90
2012;DHT22;1009;51.436;6.972;2022-10-16T16:36:39;18.30;99.90
2012;DHT22;1009;51.436;6.972;2022-10-16T16:39:07;18.10;99.90
2012;DHT22;1009;51.436;6.972;2022-10-16T16:41:34;18.10;99.90
2012;DHT22;1009;51.436;6.972;2022-10-16T16:44:06;18.20;99.90
2012;DHT22;1009;51.436;6.972;2022-10-16T16:46:34;18.00;99.90
2012;DHT22;1009;51.436;6.972;2022-10-16T16:49:01;18.00;99.90
2012;DHT22;1009;51.436;6.972;2022-10-16T16:51:28;18.00;99.90
2012;DHT22;1009;51.436;6.972;2022-10-16T16:53:56;17.90;99.90
2012;DHT22;1009;51.436;6.972;2022-10-16T16:56:23;17.90;99.90
2012;DHT22;1009;51.436;6.972;2022-10-16T17:01:20;17.60;99.90
2012;DHT22;1009;51.436;6.972;2022-10-16T17:06:56;17.90;99.90
2012;DHT22;1009;51.436;6.972;2022-10-16T17:09:23;17.80;99.90
2012;DHT22;1009;51.436;6.972;2022-10-16T17:11:49;17.70;99.90
2012;DHT22;1009;51.436;6.972;2022-10-16T17:14:16;17.70;99.90
2012;DHT22;1009;51.436;6.972;2022-10-16T17:16:44;17.80;99.90
2012;DHT22;1009;51.436;6.972;2022-10-16T17:19:15;17.80;99.90
2012;DHT22;1009;51.436;6.972;2022-10-16T18:06:05;18.00;99.90
2012;DHT22;1009;51.436;6.972;2022-10-16T18:08:33;17.30;99.90
2012;DHT22;1009;51.436;6.972;2022-10-16T18:11:01;17.40;99.90
2012;DHT22;1009;51.436;6.972;2022-10-16T18:15:59;17.40;99.90
2012;DHT22;1009;51.436;6.972;2022-10-16T18:18:26;17.40;99.90
2012;DHT22;1009;51.436;6.972;2022-10-16T18:20:57;17.50;99.90